sensor_id;sensor_type;location;lat;lon;timestamp;temperature;humidity
23114;DHT22;11726;50.122;8.832;2023-09-12T00:01:14;19.80;99.90
23114;DHT22;11726;50.122;8.832;2023-09-12T00:03:41;19.90;99.90
23114;DHT22;11726;50.122;8.832;2023-09-12T00:06:07;20.00;99.90
23114;DHT22;11726;50.122;8.832;2023-09-12T00:08:34;20.00;99.90
23114;DHT22;11726;50.122;8.832;2023-09-12T00:11:06;20.00;99.90
23114;DHT22;11726;50.122;8.832;2023-09-12T00:13:37;20.00;99.90
23114;DHT22;11726;50.122;8.832;2023-09-12T00:16:04;19.80;99.90
23114;DHT22;11726;50.122;8.832;2023-09-12T00:18:32;19.80;99.90
23114;DHT22;11726;50.122;8.832;2023-09-12T00:21:01;19.80;99.90
23114;DHT22;11726;50.122;8.832;2023-09-12T00:23:28;19.80;99.90
23114;DHT22;11726;50.122;8.832;2023-09-12T00:25:56;19.80;99.90
23114;DHT22;11726;50.122;8.832;2023-09-12T00:28:23;19.80;99.90
23114;DHT22;11726;50.122;8.832;2023-09-12T00:30:51;19.80;99.90
23114;DHT22;11726;50.122;8.832;2023-09-12T00:33:17;19.80;99.90
23114;DHT22;11726;50.122;8.832;2023-09-12T00:35:45;19.80;99.90
23114;DHT22;11726;50.122;8.832;2023-09-12T00:38:11;19.70;99.90
23114;DHT22;11726;50.122;8.832;2023-09-12T00:40:38;19.70;99.90
23114;DHT22;11726;50.122;8.832;2023-09-12T00:43:05;19.70;99.90
23114;DHT22;11726;50.122;8.832;2023-09-12T00:45:31;19.70;99.90
23114;DHT22;11726;50.122;8.832;2023-09-12T00:47:59;19.70;99.90
23114;DHT22;11726;50.122;8.832;2023-09-12T00:50:27;19.50;99.90
23114;DHT22;11726;50.122;8.832;2023-09-12T00:52:55;19.50;99.90
23114;DHT22;11726;50.122;8.832;2023-09-12T00:55:22;19.40;99.90
23114;DHT22;11726;50.122;8.832;2023-09-12T00:57:49;19.40;99.90
23114;DHT22;11726;50.122;8.832;2023-09-12T01:00:17;19.40;99.90
23114;DHT22;11726;50.122;8.832;2023-09-12T01:02:46;19.40;99.90
23114;DHT22;11726;50.122;8.832;2023-09-12T01:05:14;19.50;99.90
23114;DHT22;11726;50.122;8.832;2023-09-12T01:07:43;19.30;99.90
23114;DHT22;11726;50.122;8.832;2023-09-12T01:10:09;19.30;99.90
23114;DHT22;11726;50.122;8.832;2023-09-12T01:12:36;19.30;99.90
23114;DHT22;11726;50.122;8.832;2023-09-12T01:15:03;19.20;99.90
23114;DHT22;11726;50.122;8.832;2023-09-12T01:17:34;19.20;99.90
23114;DHT22;11726;50.122;8.832;2023-09-12T01:20:03;19.30;99.90
23114;DHT22;11726;50.122;8.832;2023-09-12T01:28:09;19.10;99.90
23114;DHT22;11726;50.122;8.832;2023-09-12T01:30:38;19.00;99.90
23114;DHT22;11726;50.122;8.832;2023-09-12T01:33:06;18.80;99.90
23114;DHT22;11726;50.122;8.832;2023-09-12T01:35:33;18.80;99.90
23114;DHT22;11726;50.122;8.832;2023-09-12T01:37:59;18.90;99.90
23114;DHT22;11726;50.122;8.832;2023-09-12T01:40:35;18.80;99.90
23114;DHT22;11726;50.122;8.832;2023-09-12T01:43:04;19.00;99.90
23114;DHT22;11726;50.122;8.832;2023-09-12T01:45:32;19.00;99.90
23114;DHT22;11726;50.122;8.832;2023-09-12T01:48:00;19.00;99.90
23114;DHT22;11726;50.122;8.832;2023-09-12T01:50:30;19.00;99.90
23114;DHT22;11726;50.122;8.832;2023-09-12T01:52:57;19.10;99.90
23114;DHT22;11726;50.122;8.832;2023-09-12T01:55:25;19.00;99.90
23114;DHT22;11726;50.122;8.832;2023-09-12T01:57:52;18.90;99.90
23114;DHT22;11726;50.122;8.832;2023-09-12T02:00:22;19.00;99.90
23114;DHT22;11726;50.122;8.832;2023-09-12T02:02:50;18.90;99.90
23114;DHT22;11726;50.122;8.832;2023-09-12T02:05:17;19.00;99.90
23114;DHT22;11726;50.122;8.832;2023-09-12T02:07:46;18.90;99.90
23114;DHT22;11726;50.122;8.832;2023-09-12T02:10:13;18.90;99.90
23114;DHT22;11726;50.122;8.832;2023-09-12T02:12:40;18.80;99.90
23114;DHT22;11726;50.122;8.832;2023-09-12T02:15:07;18.80;99.90
23114;DHT22;11726;50.122;8.832;2023-09-12T02:17:34;18.80;99.90
23114;DHT22;11726;50.122;8.832;2023-09-12T02:20:01;18.80;99.90
23114;DHT22;11726;50.122;8.832;2023-09-12T02:22:32;18.80;99.90
23114;DHT22;11726;50.122;8.832;2023-09-12T02:24:59;18.80;99.90
23114;DHT22;11726;50.122;8.832;2023-09-12T02:27:25;18.80;99.90
23114;DHT22;11726;50.122;8.832;2023-09-12T02:29:52;18.80;99.90
23114;DHT22;11726;50.122;8.832;2023-09-12T02:32:19;18.80;99.90
23114;DHT22;11726;50.122;8.832;2023-09-12T02:34:45;18.70;99.90
23114;DHT22;11726;50.122;8.832;2023-09-12T02:37:13;18.80;99.90
23114;DHT22;11726;50.122;8.832;2023-09-12T02:39:39;18.80;99.90
23114;DHT22;11726;50.122;8.832;2023-09-12T02:42:06;18.80;99.90
23114;DHT22;11726;50.122;8.832;2023-09-12T02:44:33;18.90;99.90
23114;DHT22;11726;50.122;8.832;2023-09-12T02:47:00;18.80;99.90
23114;DHT22;11726;50.122;8.832;2023-09-12T02:49:27;18.70;99.90
23114;DHT22;11726;50.122;8.832;2023-09-12T02:51:53;18.70;99.90
23114;DHT22;11726;50.122;8.832;2023-09-12T02:54:20;18.70;99.90
23114;DHT22;11726;50.122;8.832;2023-09-12T02:56:47;18.80;99.90
23114;DHT22;11726;50.122;8.832;2023-09-12T02:59:13;18.70;99.90
23114;DHT22;11726;50.122;8.832;2023-09-12T03:01:40;18.70;99.90
23114;DHT22;11726;50.122;8.832;2023-09-12T03:04:07;18.60;99.90
23114;DHT22;11726;50.122;8.832;2023-09-12T03:06:33;18.70;99.90
23114;DHT22;11726;50.122;8.832;2023-09-12T03:09:00;18.60;99.90
23114;DHT22;11726;50.122;8.832;2023-09-12T03:11:27;18.60;99.90
23114;DHT22;11726;50.122;8.832;2023-09-12T03:13:54;18.60;99.90
23114;DHT22;11726;50.122;8.832;2023-09-12T03:16:21;18.50;99.90
23114;DHT22;11726;50.122;8.832;2023-09-12T03:18:50;18.40;99.90
23114;DHT22;11726;50.122;8.832;2023-09-12T03:21:17;18.30;99.90
23114;DHT22;11726;50.122;8.832;2023-09-12T03:23:43;18.30;99.90
23114;DHT22;11726;50.122;8.832;2023-09-12T03:26:10;18.40;99.90
23114;DHT22;11726;50.122;8.832;2023-09-12T03:28:37;18.40;99.90
23114;DHT22;11726;50.122;8.832;2023-09-12T03:31:11;18.30;99.90
23114;DHT22;11726;50.122;8.832;2023-09-12T03:33:38;18.20;99.90
23114;DHT22;11726;50.122;8.832;2023-09-12T03:36:06;18.20;99.90
23114;DHT22;11726;50.122;8.832;2023-09-12T03:38:33;18.20;99.90
23114;DHT22;11726;50.122;8.832;2023-09-12T03:41:01;18.20;99.90
23114;DHT22;11726;50.122;8.832;2023-09-12T03:43:28;18.10;99.90
23114;DHT22;11726;50.122;8.832;2023-09-12T03:45:54;18.10;99.90
23114;DHT22;11726;50.122;8.832;2023-09-12T03:48:21;18.20;99.90
23114;DHT22;11726;50.122;8.832;2023-09-12T03:50:48;18.20;99.90
23114;DHT22;11726;50.122;8.832;2023-09-12T03:53:15;18.10;99.90
23114;DHT22;11726;50.122;8.832;2023-09-12T03:55:42;18.10;99.90
23114;DHT22;11726;50.122;8.832;2023-09-12T03:58:09;17.90;99.90
23114;DHT22;11726;50.122;8.832;2023-09-12T04:00:36;18.00;99.90
23114;DHT22;11726;50.122;8.832;2023-09-12T04:03:03;18.00;99.90
23114;DHT22;11726;50.122;8.832;2023-09-12T04:05:30;18.00;99.90
23114;DHT22;11726;50.122;8.832;2023-09-12T04:07:56;18.10;99.90
23114;DHT22;11726;50.122;8.832;2023-09-12T04:10:23;18.20;99.90
23114;DHT22;11726;50.122;8.832;2023-09-12T04:12:50;18.30;99.90
23114;DHT22;11726;50.122;8.832;2023-09-12T04:15:16;18.30;99.90
23114;DHT22;11726;50.122;8.832;2023-09-12T04:17:43;18.30;99.90
23114;DHT22;11726;50.122;8.832;2023-09-12T04:20:10;18.40;99.90
23114;DHT22;11726;50.122;8.832;2023-09-12T04:22:42;18.40;99.90
23114;DHT22;11726;50.122;8.832;2023-09-12T04:25:09;18.40;99.90
23114;DHT22;11726;50.122;8.832;2023-09-12T04:27:35;18.40;99.90
23114;DHT22;11726;50.122;8.832;2023-09-12T04:30:03;18.50;99.90
23114;DHT22;11726;50.122;8.832;2023-09-12T04:32:30;18.50;99.90
23114;DHT22;11726;50.122;8.832;2023-09-12T04:34:57;18.50;99.90
23114;DHT22;11726;50.122;8.832;2023-09-12T04:37:23;18.40;99.90
23114;DHT22;11726;50.122;8.832;2023-09-12T04:39:50;18.50;99.90
23114;DHT22;11726;50.122;8.832;2023-09-12T04:42:17;18.40;99.90
23114;DHT22;11726;50.122;8.832;2023-09-12T04:44:43;18.40;99.90
23114;DHT22;11726;50.122;8.832;2023-09-12T04:47:10;18.40;99.90
23114;DHT22;11726;50.122;8.832;2023-09-12T04:49:38;18.40;99.90
23114;DHT22;11726;50.122;8.832;2023-09-12T04:52:05;18.40;99.90
23114;DHT22;11726;50.122;8.832;2023-09-12T04:54:32;18.40;99.90
23114;DHT22;11726;50.122;8.832;2023-09-12T04:56:59;18.40;99.90
23114;DHT22;11726;50.122;8.832;2023-09-12T04:59:26;18.50;99.90
23114;DHT22;11726;50.122;8.832;2023-09-12T05:01:52;18.60;99.90
23114;DHT22;11726;50.122;8.832;2023-09-12T05:04:19;18.60;99.90
23114;DHT22;11726;50.122;8.832;2023-09-12T05:06:46;18.70;99.90
23114;DHT22;11726;50.122;8.832;2023-09-12T05:09:14;18.80;99.90
23114;DHT22;11726;50.122;8.832;2023-09-12T05:11:41;18.70;99.90
23114;DHT22;11726;50.122;8.832;2023-09-12T05:14:09;18.70;99.90
23114;DHT22;11726;50.122;8.832;2023-09-12T05:16:35;18.80;99.90
23114;DHT22;11726;50.122;8.832;2023-09-12T05:19:02;18.70;99.90
23114;DHT22;11726;50.122;8.832;2023-09-12T05:21:30;18.70;99.90
23114;DHT22;11726;50.122;8.832;2023-09-12T05:23:57;18.70;99.90
23114;DHT22;11726;50.122;8.832;2023-09-12T05:26:23;18.70;99.90
23114;DHT22;11726;50.122;8.832;2023-09-12T05:28:50;18.80;99.90
23114;DHT22;11726;50.122;8.832;2023-09-12T05:31:17;18.80;99.90
23114;DHT22;11726;50.122;8.832;2023-09-12T05:33:44;18.70;99.90
23114;DHT22;11726;50.122;8.832;2023-09-12T05:36:11;18.80;99.90
23114;DHT22;11726;50.122;8.832;2023-09-12T05:38:38;18.80;99.90
23114;DHT22;11726;50.122;8.832;2023-09-12T05:41:04;18.80;99.90
23114;DHT22;11726;50.122;8.832;2023-09-12T05:43:31;18.80;99.90
23114;DHT22;11726;50.122;8.832;2023-09-12T05:45:58;19.00;99.90
23114;DHT22;11726;50.122;8.832;2023-09-12T05:48:24;19.00;99.90
23114;DHT22;11726;50.122;8.832;2023-09-12T05:50:51;19.00;99.90
23114;DHT22;11726;50.122;8.832;2023-09-12T05:53:18;19.00;99.90
23114;DHT22;11726;50.122;8.832;2023-09-12T05:55:45;19.00;99.90
23114;DHT22;11726;50.122;8.832;2023-09-12T05:58:11;18.90;99.90
23114;DHT22;11726;50.122;8.832;2023-09-12T06:00:38;19.00;99.90
23114;DHT22;11726;50.122;8.832;2023-09-12T06:03:05;18.90;99.90
23114;DHT22;11726;50.122;8.832;2023-09-12T06:05:32;19.00;99.90
23114;DHT22;11726;50.122;8.832;2023-09-12T06:07:59;19.10;99.90
23114;DHT22;11726;50.122;8.832;2023-09-12T06:10:26;19.10;99.90
23114;DHT22;11726;50.122;8.832;2023-09-12T06:12:53;19.10;99.90
23114;DHT22;11726;50.122;8.832;2023-09-12T06:15:19;19.10;99.90
23114;DHT22;11726;50.122;8.832;2023-09-12T06:17:46;19.20;99.90
23114;DHT22;11726;50.122;8.832;2023-09-12T06:20:13;19.20;99.90
23114;DHT22;11726;50.122;8.832;2023-09-12T06:22:40;19.30;99.90
23114;DHT22;11726;50.122;8.832;2023-09-12T06:25:07;19.30;99.90
23114;DHT22;11726;50.122;8.832;2023-09-12T06:27:33;19.30;99.90
23114;DHT22;11726;50.122;8.832;2023-09-12T06:30:00;19.40;99.90
23114;DHT22;11726;50.122;8.832;2023-09-12T06:32:27;19.40;99.90
23114;DHT22;11726;50.122;8.832;2023-09-12T06:34:54;19.40;99.90
23114;DHT22;11726;50.122;8.832;2023-09-12T06:37:21;19.40;99.90
23114;DHT22;11726;50.122;8.832;2023-09-12T06:39:50;19.30;99.90
23114;DHT22;11726;50.122;8.832;2023-09-12T06:42:17;19.40;99.90
23114;DHT22;11726;50.122;8.832;2023-09-12T06:44:44;19.40;99.90
23114;DHT22;11726;50.122;8.832;2023-09-12T06:47:11;19.50;99.90
23114;DHT22;11726;50.122;8.832;2023-09-12T06:49:38;19.50;99.90
23114;DHT22;11726;50.122;8.832;2023-09-12T06:52:05;19.50;99.90
23114;DHT22;11726;50.122;8.832;2023-09-12T06:54:33;19.40;99.90
23114;DHT22;11726;50.122;8.832;2023-09-12T06:57:00;19.30;99.90
23114;DHT22;11726;50.122;8.832;2023-09-12T06:59:26;19.40;99.90
23114;DHT22;11726;50.122;8.832;2023-09-12T07:01:53;19.50;99.90
23114;DHT22;11726;50.122;8.832;2023-09-12T07:04:20;19.50;99.90
23114;DHT22;11726;50.122;8.832;2023-09-12T07:06:47;19.50;99.90
23114;DHT22;11726;50.122;8.832;2023-09-12T07:09:13;19.50;99.90
23114;DHT22;11726;50.122;8.832;2023-09-12T07:11:41;19.50;99.90
23114;DHT22;11726;50.122;8.832;2023-09-12T07:14:09;19.50;99.90
23114;DHT22;11726;50.122;8.832;2023-09-12T07:16:36;19.50;99.90
23114;DHT22;11726;50.122;8.832;2023-09-12T07:19:04;19.50;99.90
23114;DHT22;11726;50.122;8.832;2023-09-12T07:21:32;19.50;99.90
23114;DHT22;11726;50.122;8.832;2023-09-12T07:23:59;19.50;99.90
23114;DHT22;11726;50.122;8.832;2023-09-12T07:26:25;19.50;99.90
23114;DHT22;11726;50.122;8.832;2023-09-12T07:28:54;19.50;99.90
23114;DHT22;11726;50.122;8.832;2023-09-12T07:31:21;19.50;99.90
23114;DHT22;11726;50.122;8.832;2023-09-12T07:33:48;19.50;99.90
23114;DHT22;11726;50.122;8.832;2023-09-12T07:36:14;19.70;99.90
23114;DHT22;11726;50.122;8.832;2023-09-12T07:38:41;19.80;99.90
23114;DHT22;11726;50.122;8.832;2023-09-12T07:41:09;19.90;99.90
23114;DHT22;11726;50.122;8.832;2023-09-12T07:43:36;19.90;99.90
23114;DHT22;11726;50.122;8.832;2023-09-12T07:46:02;20.20;99.90
23114;DHT22;11726;50.122;8.832;2023-09-12T07:48:30;20.20;99.90
23114;DHT22;11726;50.122;8.832;2023-09-12T07:50:57;20.30;99.90
23114;DHT22;11726;50.122;8.832;2023-09-12T07:53:23;20.40;99.90
23114;DHT22;11726;50.122;8.832;2023-09-12T07:55:50;20.50;99.90
23114;DHT22;11726;50.122;8.832;2023-09-12T07:58:18;20.70;99.90
23114;DHT22;11726;50.122;8.832;2023-09-12T08:00:46;20.90;99.90
23114;DHT22;11726;50.122;8.832;2023-09-12T08:03:13;21.00;99.90
23114;DHT22;11726;50.122;8.832;2023-09-12T08:05:42;21.00;99.90
23114;DHT22;11726;50.122;8.832;2023-09-12T08:08:08;21.00;99.90
23114;DHT22;11726;50.122;8.832;2023-09-12T08:10:35;21.10;99.90
23114;DHT22;11726;50.122;8.832;2023-09-12T08:13:02;21.20;99.90
23114;DHT22;11726;50.122;8.832;2023-09-12T08:15:28;21.30;99.90
23114;DHT22;11726;50.122;8.832;2023-09-12T08:17:55;21.50;99.90
23114;DHT22;11726;50.122;8.832;2023-09-12T08:20:22;21.60;99.90
23114;DHT22;11726;50.122;8.832;2023-09-12T08:22:49;21.60;99.90
23114;DHT22;11726;50.122;8.832;2023-09-12T08:25:16;21.60;99.90
23114;DHT22;11726;50.122;8.832;2023-09-12T08:27:42;21.80;99.90
23114;DHT22;11726;50.122;8.832;2023-09-12T08:30:13;21.80;99.90
23114;DHT22;11726;50.122;8.832;2023-09-12T08:32:40;22.10;99.90
23114;DHT22;11726;50.122;8.832;2023-09-12T08:35:14;22.20;99.90
23114;DHT22;11726;50.122;8.832;2023-09-12T08:37:41;22.30;99.90
23114;DHT22;11726;50.122;8.832;2023-09-12T08:40:09;22.60;99.90
23114;DHT22;11726;50.122;8.832;2023-09-12T08:42:44;22.60;99.90
23114;DHT22;11726;50.122;8.832;2023-09-12T08:45:13;22.60;99.90
23114;DHT22;11726;50.122;8.832;2023-09-12T08:47:45;22.60;99.90
23114;DHT22;11726;50.122;8.832;2023-09-12T08:50:14;22.70;99.90
23114;DHT22;11726;50.122;8.832;2023-09-12T08:52:43;22.90;99.90
23114;DHT22;11726;50.122;8.832;2023-09-12T08:55:25;22.90;99.90
23114;DHT22;11726;50.122;8.832;2023-09-12T08:57:53;23.00;99.90
23114;DHT22;11726;50.122;8.832;2023-09-12T09:00:22;23.00;99.90
23114;DHT22;11726;50.122;8.832;2023-09-12T09:02:50;23.20;99.90
23114;DHT22;11726;50.122;8.832;2023-09-12T09:05:17;23.30;99.90
23114;DHT22;11726;50.122;8.832;2023-09-12T09:07:48;23.30;99.90
23114;DHT22;11726;50.122;8.832;2023-09-12T09:10:17;23.30;99.90
23114;DHT22;11726;50.122;8.832;2023-09-12T09:12:50;23.40;99.90
23114;DHT22;11726;50.122;8.832;2023-09-12T09:15:27;23.60;99.90
23114;DHT22;11726;50.122;8.832;2023-09-12T09:17:56;23.90;99.90
23114;DHT22;11726;50.122;8.832;2023-09-12T09:20:31;24.00;99.90
23114;DHT22;11726;50.122;8.832;2023-09-12T09:23:00;24.10;99.90
23114;DHT22;11726;50.122;8.832;2023-09-12T09:25:27;24.10;99.90
23114;DHT22;11726;50.122;8.832;2023-09-12T09:27:54;24.30;99.90
23114;DHT22;11726;50.122;8.832;2023-09-12T09:30:43;24.30;99.90
23114;DHT22;11726;50.122;8.832;2023-09-12T09:33:10;24.40;99.90
23114;DHT22;11726;50.122;8.832;2023-09-12T09:35:40;24.60;99.90
23114;DHT22;11726;50.122;8.832;2023-09-12T09:38:07;24.70;99.90
23114;DHT22;11726;50.122;8.832;2023-09-12T09:40:35;24.80;99.90
23114;DHT22;11726;50.122;8.832;2023-09-12T09:43:06;24.60;99.90
23114;DHT22;11726;50.122;8.832;2023-09-12T09:45:43;24.80;99.90
23114;DHT22;11726;50.122;8.832;2023-09-12T09:48:21;24.90;99.90
23114;DHT22;11726;50.122;8.832;2023-09-12T09:50:48;24.90;99.90
23114;DHT22;11726;50.122;8.832;2023-09-12T09:53:15;24.90;99.90
23114;DHT22;11726;50.122;8.832;2023-09-12T09:55:42;25.10;99.90
23114;DHT22;11726;50.122;8.832;2023-09-12T09:58:14;25.30;99.90
23114;DHT22;11726;50.122;8.832;2023-09-12T10:00:43;25.40;99.90
23114;DHT22;11726;50.122;8.832;2023-09-12T10:03:13;25.50;99.90
23114;DHT22;11726;50.122;8.832;2023-09-12T10:05:42;25.60;99.90
23114;DHT22;11726;50.122;8.832;2023-09-12T10:08:11;25.50;99.90
23114;DHT22;11726;50.122;8.832;2023-09-12T10:10:43;25.60;99.90
23114;DHT22;11726;50.122;8.832;2023-09-12T10:13:11;25.50;99.90
23114;DHT22;11726;50.122;8.832;2023-09-12T10:15:39;25.60;99.90
23114;DHT22;11726;50.122;8.832;2023-09-12T10:18:09;25.70;99.90
23114;DHT22;11726;50.122;8.832;2023-09-12T10:21:06;26.00;99.90
23114;DHT22;11726;50.122;8.832;2023-09-12T10:23:45;26.10;99.90
23114;DHT22;11726;50.122;8.832;2023-09-12T10:26:13;26.00;99.90
23114;DHT22;11726;50.122;8.832;2023-09-12T10:28:41;26.10;99.90
23114;DHT22;11726;50.122;8.832;2023-09-12T10:31:12;26.20;99.90
23114;DHT22;11726;50.122;8.832;2023-09-12T10:33:39;26.30;99.90
23114;DHT22;11726;50.122;8.832;2023-09-12T10:36:08;26.40;99.90
23114;DHT22;11726;50.122;8.832;2023-09-12T10:38:47;26.50;99.90
23114;DHT22;11726;50.122;8.832;2023-09-12T10:41:15;26.40;99.90
23114;DHT22;11726;50.122;8.832;2023-09-12T10:43:44;26.60;99.90
23114;DHT22;11726;50.122;8.832;2023-09-12T10:46:16;26.70;99.90
23114;DHT22;11726;50.122;8.832;2023-09-12T10:48:44;26.80;99.90
23114;DHT22;11726;50.122;8.832;2023-09-12T10:51:11;26.90;99.90
23114;DHT22;11726;50.122;8.832;2023-09-12T10:53:47;27.00;99.90
23114;DHT22;11726;50.122;8.832;2023-09-12T10:56:20;27.00;99.90
23114;DHT22;11726;50.122;8.832;2023-09-12T11:01:43;26.90;99.90
23114;DHT22;11726;50.122;8.832;2023-09-12T11:06:48;27.20;99.90
23114;DHT22;11726;50.122;8.832;2023-09-12T11:09:23;27.50;99.90
23114;DHT22;11726;50.122;8.832;2023-09-12T11:11:57;27.70;99.90
23114;DHT22;11726;50.122;8.832;2023-09-12T11:14:24;27.80;99.90
23114;DHT22;11726;50.122;8.832;2023-09-12T11:19:48;27.90;99.90
23114;DHT22;11726;50.122;8.832;2023-09-12T11:22:22;27.90;99.90
23114;DHT22;11726;50.122;8.832;2023-09-12T11:24:49;28.00;99.90
23114;DHT22;11726;50.122;8.832;2023-09-12T11:27:16;28.20;99.90
23114;DHT22;11726;50.122;8.832;2023-09-12T11:29:44;28.20;99.90
23114;DHT22;11726;50.122;8.832;2023-09-12T11:32:10;28.40;99.90
23114;DHT22;11726;50.122;8.832;2023-09-12T11:34:51;28.20;99.90
23114;DHT22;11726;50.122;8.832;2023-09-12T11:37:26;28.10;99.90
23114;DHT22;11726;50.122;8.832;2023-09-12T11:39:53;28.30;99.90
23114;DHT22;11726;50.122;8.832;2023-09-12T11:42:21;28.20;99.90
23114;DHT22;11726;50.122;8.832;2023-09-12T11:44:51;28.00;99.90
23114;DHT22;11726;50.122;8.832;2023-09-12T11:47:18;27.90;99.90
23114;DHT22;11726;50.122;8.832;2023-09-12T11:49:45;28.00;99.90
23114;DHT22;11726;50.122;8.832;2023-09-12T11:52:13;28.10;99.90
23114;DHT22;11726;50.122;8.832;2023-09-12T11:54:41;28.10;99.90
23114;DHT22;11726;50.122;8.832;2023-09-12T11:57:13;28.40;99.90
23114;DHT22;11726;50.122;8.832;2023-09-12T11:59:43;28.70;99.90
23114;DHT22;11726;50.122;8.832;2023-09-12T12:02:11;29.00;99.90
23114;DHT22;11726;50.122;8.832;2023-09-12T12:04:38;29.20;99.90
23114;DHT22;11726;50.122;8.832;2023-09-12T12:07:06;29.20;99.90
23114;DHT22;11726;50.122;8.832;2023-09-12T12:09:34;29.30;99.90
23114;DHT22;11726;50.122;8.832;2023-09-12T12:12:11;29.50;99.90
23114;DHT22;11726;50.122;8.832;2023-09-12T12:14:40;29.90;99.90
23114;DHT22;11726;50.122;8.832;2023-09-12T12:17:11;29.90;99.90
23114;DHT22;11726;50.122;8.832;2023-09-12T12:19:38;29.80;99.90
23114;DHT22;11726;50.122;8.832;2023-09-12T12:22:06;29.80;99.90
23114;DHT22;11726;50.122;8.832;2023-09-12T12:24:42;29.90;99.90
23114;DHT22;11726;50.122;8.832;2023-09-12T12:27:08;29.70;98.30
23114;DHT22;11726;50.122;8.832;2023-09-12T12:29:38;29.90;99.90
23114;DHT22;11726;50.122;8.832;2023-09-12T12:32:10;30.00;98.00
23114;DHT22;11726;50.122;8.832;2023-09-12T12:34:37;29.90;98.50
23114;DHT22;11726;50.122;8.832;2023-09-12T12:37:30;29.90;98.50
23114;DHT22;11726;50.122;8.832;2023-09-12T12:40:01;30.10;99.90
23114;DHT22;11726;50.122;8.832;2023-09-12T12:42:34;30.30;98.50
23114;DHT22;11726;50.122;8.832;2023-09-12T12:45:24;30.20;96.60
23114;DHT22;11726;50.122;8.832;2023-09-12T12:47:58;30.40;99.90
23114;DHT22;11726;50.122;8.832;2023-09-12T12:50:26;30.40;99.10
23114;DHT22;11726;50.122;8.832;2023-09-12T12:52:53;30.50;97.30
23114;DHT22;11726;50.122;8.832;2023-09-12T12:55:21;30.60;97.00
23114;DHT22;11726;50.122;8.832;2023-09-12T12:57:51;30.60;96.70
23114;DHT22;11726;50.122;8.832;2023-09-12T13:00:18;30.90;97.60
23114;DHT22;11726;50.122;8.832;2023-09-12T13:02:45;30.70;97.70
23114;DHT22;11726;50.122;8.832;2023-09-12T13:05:26;30.80;98.50
23114;DHT22;11726;50.122;8.832;2023-09-12T13:07:53;31.10;96.80
23114;DHT22;11726;50.122;8.832;2023-09-12T13:10:21;31.00;95.70
23114;DHT22;11726;50.122;8.832;2023-09-12T13:12:48;31.20;96.50
23114;DHT22;11726;50.122;8.832;2023-09-12T13:15:16;31.10;96.70
23114;DHT22;11726;50.122;8.832;2023-09-12T13:17:44;31.20;96.70
23114;DHT22;11726;50.122;8.832;2023-09-12T13:20:11;31.20;93.20
23114;DHT22;11726;50.122;8.832;2023-09-12T13:22:38;31.20;93.50
23114;DHT22;11726;50.122;8.832;2023-09-12T13:25:06;31.50;92.00
23114;DHT22;11726;50.122;8.832;2023-09-12T13:27:32;31.50;91.70
23114;DHT22;11726;50.122;8.832;2023-09-12T13:30:00;31.50;92.50
23114;DHT22;11726;50.122;8.832;2023-09-12T13:32:26;31.70;92.20
23114;DHT22;11726;50.122;8.832;2023-09-12T13:34:53;31.50;91.40
23114;DHT22;11726;50.122;8.832;2023-09-12T13:37:20;30.80;91.90
23114;DHT22;11726;50.122;8.832;2023-09-12T13:39:48;30.80;92.30
23114;DHT22;11726;50.122;8.832;2023-09-12T13:42:16;31.10;92.50
23114;DHT22;11726;50.122;8.832;2023-09-12T13:44:48;31.50;92.50
23114;DHT22;11726;50.122;8.832;2023-09-12T13:47:15;31.60;91.80
23114;DHT22;11726;50.122;8.832;2023-09-12T13:49:49;31.50;91.20
23114;DHT22;11726;50.122;8.832;2023-09-12T13:52:20;31.30;91.70
23114;DHT22;11726;50.122;8.832;2023-09-12T13:54:47;31.60;91.80
23114;DHT22;11726;50.122;8.832;2023-09-12T13:57:16;31.90;91.50
23114;DHT22;11726;50.122;8.832;2023-09-12T13:59:43;32.10;92.00
23114;DHT22;11726;50.122;8.832;2023-09-12T14:02:12;32.10;91.40
23114;DHT22;11726;50.122;8.832;2023-09-12T14:04:40;32.10;92.40
23114;DHT22;11726;50.122;8.832;2023-09-12T14:07:08;32.60;91.50
23114;DHT22;11726;50.122;8.832;2023-09-12T14:09:36;32.80;85.50
23114;DHT22;11726;50.122;8.832;2023-09-12T14:12:04;33.20;89.70
23114;DHT22;11726;50.122;8.832;2023-09-12T14:14:44;33.10;90.60
23114;DHT22;11726;50.122;8.832;2023-09-12T14:17:26;32.90;90.50
23114;DHT22;11726;50.122;8.832;2023-09-12T14:19:55;32.70;91.40
23114;DHT22;11726;50.122;8.832;2023-09-12T14:22:22;32.60;91.20
23114;DHT22;11726;50.122;8.832;2023-09-12T14:24:51;32.60;90.30
23114;DHT22;11726;50.122;8.832;2023-09-12T14:27:18;32.60;91.10
23114;DHT22;11726;50.122;8.832;2023-09-12T14:29:53;32.60;90.50
23114;DHT22;11726;50.122;8.832;2023-09-12T14:32:19;32.50;92.30
23114;DHT22;11726;50.122;8.832;2023-09-12T14:34:47;32.70;91.30
23114;DHT22;11726;50.122;8.832;2023-09-12T14:37:13;32.60;91.20
23114;DHT22;11726;50.122;8.832;2023-09-12T14:39:40;32.10;90.30
23114;DHT22;11726;50.122;8.832;2023-09-12T14:42:07;32.10;91.40
23114;DHT22;11726;50.122;8.832;2023-09-12T14:44:35;32.30;93.00
23114;DHT22;11726;50.122;8.832;2023-09-12T14:47:02;32.50;88.90
23114;DHT22;11726;50.122;8.832;2023-09-12T14:49:29;32.60;91.00
23114;DHT22;11726;50.122;8.832;2023-09-12T14:52:01;32.80;90.70
23114;DHT22;11726;50.122;8.832;2023-09-12T14:54:31;32.70;88.00
23114;DHT22;11726;50.122;8.832;2023-09-12T14:56:58;32.80;88.70
23114;DHT22;11726;50.122;8.832;2023-09-12T14:59:25;33.10;89.20
23114;DHT22;11726;50.122;8.832;2023-09-12T15:01:51;32.80;90.20
23114;DHT22;11726;50.122;8.832;2023-09-12T15:04:18;32.90;85.60
23114;DHT22;11726;50.122;8.832;2023-09-12T15:06:45;33.00;86.10
23114;DHT22;11726;50.122;8.832;2023-09-12T15:09:12;32.90;89.20
23114;DHT22;11726;50.122;8.832;2023-09-12T15:11:38;32.80;88.40
23114;DHT22;11726;50.122;8.832;2023-09-12T15:14:05;32.50;88.40
23114;DHT22;11726;50.122;8.832;2023-09-12T15:16:32;32.60;88.50
23114;DHT22;11726;50.122;8.832;2023-09-12T15:19:01;32.80;89.90
23114;DHT22;11726;50.122;8.832;2023-09-12T15:21:29;32.70;87.60
23114;DHT22;11726;50.122;8.832;2023-09-12T15:23:56;32.40;88.10
23114;DHT22;11726;50.122;8.832;2023-09-12T15:26:23;32.30;90.00
23114;DHT22;11726;50.122;8.832;2023-09-12T15:28:50;32.10;90.30
23114;DHT22;11726;50.122;8.832;2023-09-12T15:31:16;31.90;91.30
23114;DHT22;11726;50.122;8.832;2023-09-12T15:33:43;31.70;90.70
23114;DHT22;11726;50.122;8.832;2023-09-12T15:36:11;31.70;91.30
23114;DHT22;11726;50.122;8.832;2023-09-12T15:38:38;31.50;92.00
23114;DHT22;11726;50.122;8.832;2023-09-12T15:41:04;31.30;92.30
23114;DHT22;11726;50.122;8.832;2023-09-12T15:43:34;31.00;92.70
23114;DHT22;11726;50.122;8.832;2023-09-12T15:46:02;30.90;93.10
23114;DHT22;11726;50.122;8.832;2023-09-12T15:48:29;30.80;94.40
23114;DHT22;11726;50.122;8.832;2023-09-12T15:50:56;30.70;93.10